• Join FlightAware (Why Join?)
  • Login
  • US Flag 
08:05AM EDT


 

Airport Tracker/Info


-or-


 

Live Flight TrackerFlight Track Log ✈ UAL4550 ✈ 15-Apr-2013 ✈ KSLC - KIAH

Flight Track Log - Related Links

Times and Time Zones

All times are in EDT time to prevent confusion due to time zone crossing. See the UAL4550 flight status page for this flight to view local times or setup timezone preferences in your user account.

Time Position Orientation Groundspeed Altitude Reporting Facility
EDT Latitude Longitude Course Direction KTS MPH feet Rate Location/Type
02:56PM 40.8100 -111.9639 122° Southeast 205 236 5,200  Level Salt Lake Center
02:57PM 40.8408 -111.9678 355° North 194 223 6,400 1,740 Climbing Salt Lake Center
02:58PM 40.9097 -111.9783 353° North 232 267 8,100 1,620 Climbing Salt Lake Center
02:59PM 40.9611 -111.9842 355° North 249 287 9,400 1,620 Climbing Salt Lake Center
03:00PM 40.3584 -111.9333 180° South  Level FlightAware Approximate
03:00PM 41.0350 -111.9692 North 282 325 11,100  Level Salt Lake Center
03:01PM 40.2534 -111.9234 150° Southeast  Level FlightAware Approximate
03:01PM 41.0247 -111.8789 99° East 281 323 12,900  Level Salt Lake Center
03:02PM 40.1887 -111.7885 122° Southeast  Level Estimated
03:02PM 40.9731 -111.8083 134° Southeast 283 326 14,700  Level Salt Lake Center
03:03PM 40.9042 -111.7089 132° Southeast 308 354 16,500 1,200 Climbing Salt Lake Center
03:04PM 40.8372 -111.6128 133° Southeast 359 413 17,200 960 Climbing Salt Lake Center
03:05PM 40.7653 -111.5100 133° Southeast 381 438 18,500 1,320 Climbing Salt Lake Center
03:06PM 40.6928 -111.3994 131° Southeast 398 458 20,000 1,560 Climbing Salt Lake Center
03:07PM 40.6508 -111.2583 111° Southeast 413 475 21,800 1,560 Climbing Salt Lake Center
03:08PM 40.6103 -111.1192 111° Southeast 409 471 23,300 1,500 Climbing Salt Lake Center
03:09PM 40.5597 -110.9450 111° Southeast 424 488 24,900 1,380 Climbing Salt Lake Center
03:10PM 40.5167 -110.7997 111° Southeast 428 493 26,200 1,260 Climbing Salt Lake Center
03:11PM 40.4736 -110.6547 111° Southeast 428 493 27,600 1,260 Climbing Salt Lake Center
03:12PM 40.4286 -110.5069 112° Southeast 432 497 28,900 660 Climbing Salt Lake Center
03:13PM 40.3692 -110.3756 121° Southeast 438 504 29,000  Climbing Salt Lake Center
03:14PM 40.2883 -110.2194 124° Southeast 463 533 29,000  Level Salt Lake Center
03:15PM 40.2158 -110.0806 124° Southeast 479 551 29,000  Level Salt Lake Center
03:16PM 40.1275 -109.9111 124° Southeast 502 578 29,000  Level Salt Lake Center
03:17PM 40.0514 -109.7650 124° Southeast 507 583 29,000 720 Level Salt Lake Center
03:18PM 39.9642 -109.6000 125° Southeast 496 571 30,600 1,560 Climbing Salt Lake Center
03:19PM 39.9275 -109.5300 124° Southeast 489 563 31,400 1,440 Climbing Denver Center
03:20PM 39.8567 -109.3961 125° Southeast 472 543 32,800 1,320 Climbing Denver Center
03:20PM 39.8100 -109.3097 125° Southeast 468 539 33,500 1,200 Climbing Salt Lake Center
03:21PM 39.7397 -109.1786 125° Southeast 464 534 34,800 1,320 Climbing Salt Lake Center
03:22PM 39.7053 -109.1136 125° Southeast 455 524 35,500 1,260 Climbing Denver Center
03:23PM 39.6378 -108.9883 125° Southeast 446 513 36,700 720 Climbing Denver Center
03:24PM 39.5619 -108.8472 125° Southeast 437 503 37,000 120 Climbing Denver Center
03:25PM 39.4808 -108.7006 126° Southeast 459 528 37,000  Level Denver Center
03:26PM 39.4078 -108.5675 125° Southeast 477 549 37,000  Level Denver Center
03:27PM 39.3342 -108.4297 125° Southeast 489 563 37,000  Level Denver Center
03:28PM 39.2447 -108.2667 125° Southeast 497 572 37,000  Level Denver Center
03:29PM 39.1683 -108.1286 125° Southeast 494 568 37,000  Level Denver Center
03:30PM 39.0806 -107.9692 125° Southeast 488 562 37,000  Level Denver Center
03:31PM 39.0047 -107.8328 126° Southeast 490 564 37,000  Level Denver Center
03:32PM 38.9158 -107.6731 126° Southeast 491 565 37,000  Level Denver Center
03:33PM 38.8369 -107.5336 126° Southeast 500 575 37,000  Level Denver Center
03:34PM 38.7428 -107.3703 126° Southeast 508 585 37,000  Level Denver Center
03:35PM 38.6608 -107.2269 126° Southeast 517 595 37,000  Level Denver Center
03:36PM 38.5692 -107.0650 126° Southeast 528 608 37,000  Level Denver Center
03:37PM 38.4828 -106.9142 126° Southeast 528 608 37,000  Level Denver Center
03:38PM 38.3956 -106.7633 126° Southeast 530 610 37,000  Level Denver Center
03:39PM 38.2994 -106.6003 127° Southeast 528 608 37,000  Level Denver Center
03:40PM 38.2219 -106.4636 126° Southeast 523 602 37,000  Level Denver Center
03:41PM 38.1339 -106.3156 127° Southeast 523 602 37,000  Level Denver Center
03:42PM 38.0442 -106.1600 126° Southeast 512 589 37,000  Level Denver Center
03:43PM 37.9547 -106.0092 127° Southeast 478 550 37,000  Level Denver Center
03:44PM 37.8800 -105.8825 127° Southeast 471 542 37,000  Level Denver Center
03:45PM 37.7925 -105.7375 127° Southeast 465 535 37,000  Level Denver Center
03:46PM 37.7167 -105.6094 127° Southeast 472 543 37,000  Level Denver Center
03:47PM 37.6397 -105.4789 127° Southeast 481 554 37,000  Level Denver Center
03:49PM 37.5486 -105.3294 128° Southeast 480 552 37,000  Level Denver Center
03:50PM 37.4650 -105.1922 127° Southeast 472 543 37,000  Level Denver Center
03:51PM 37.3839 -105.0569 127° Southeast 473 544 37,000  Level Denver Center
03:52PM 37.3067 -104.9306 128° Southeast 476 548 37,000  Level Denver Center
03:53PM 37.2206 -104.7894 127° Southeast 463 533 37,000  Level Denver Center
03:54PM 37.1458 -104.6678 128° Southeast 461 531 37,000  Level Denver Center
03:55PM 37.0547 -104.5217 128° Southeast 473 544 37,000  Level Denver Center
03:56PM 36.9778 -104.3958 127° Southeast 477 549 37,000  Level Denver Center
03:57PM 36.9008 -104.2719 128° Southeast 476 548 37,000  Level Albuquerque Center
03:58PM 36.8108 -104.1272 128° Southeast 474 545 37,000  Level Albuquerque Center
03:59PM 36.7319 -104.0033 128° Southeast 478 550 37,000  Level Albuquerque Center
04:00PM 36.6506 -103.8767 129° Southeast 477 549 37,000  Level Albuquerque Center
04:01PM 36.5681 -103.7447 128° Southeast 478 550 37,000  Level Albuquerque Center
04:02PM 36.4714 -103.5914 128° Southeast 478 550 37,000  Level Albuquerque Center
04:03PM 36.3878 -103.4611 129° Southeast 478 550 37,000  Level Albuquerque Center
04:04PM 36.3061 -103.3328 128° Southeast 471 542 37,000  Level Albuquerque Center
04:05PM 36.2258 -103.2083 129° Southeast 462 532 37,000  Level Albuquerque Center
04:06PM 36.1450 -103.0814 128° Southeast 462 532 37,000  Level Albuquerque Center
04:07PM 36.0617 -102.9525 129° Southeast 470 541 37,000  Level Albuquerque Center
04:08PM 35.9797 -102.8278 129° Southeast 475 547 37,000  Level Albuquerque Center
04:09PM 35.8975 -102.7014 129° Southeast 474 545 37,000  Level Albuquerque Center
04:10PM 35.7994 -102.5514 129° Southeast 470 541 37,000  Level Albuquerque Center
04:11PM 35.7167 -102.4244 129° Southeast 473 544 37,000  Level Albuquerque Center
04:12PM 35.6353 -102.3003 129° Southeast 470 541 37,000  Level Albuquerque Center
04:13PM 35.5533 -102.1764 129° Southeast 469 540 37,000  Level Albuquerque Center
04:14PM 35.4717 -102.0528 129° Southeast 468 539 37,000  Level Albuquerque Center
04:15PM 35.3839 -101.9189 129° Southeast 466 536 37,000  Level Albuquerque Center
04:16PM 35.3033 -101.7958 129° Southeast 460 529 37,000  Level Albuquerque Center
04:17PM 35.2153 -101.6717 131° Southeast 470 541 37,000  Level Albuquerque Center
04:18PM 35.1325 -101.5372 127° Southeast 464 534 37,000  Level Albuquerque Center
04:19PM 35.0522 -101.4114 128° Southeast 466 536 37,000  Level Albuquerque Center
04:20PM 34.9572 -101.2692 129° Southeast 477 549 37,000  Level Albuquerque Center
04:21PM 34.8750 -101.1425 128° Southeast 480 552 37,000  Level Albuquerque Center
04:22PM 34.7936 -101.0164 128° Southeast 476 548 37,000  Level Albuquerque Center
04:24PM 34.7117 -100.8936 129° Southeast 471 542 37,000  Level Albuquerque Center
04:25PM 34.6306 -100.7711 129° Southeast 467 537 37,000  Level Albuquerque Center
04:26PM 34.5342 -100.6233 128° Southeast 466 536 37,000  Level Albuquerque Center
04:27PM 34.4522 -100.4997 129° Southeast 469 540 37,000  Level Albuquerque Center
04:28PM 34.3694 -100.3767 129° Southeast 471 542 37,000  Level Albuquerque Center
04:28PM 34.3397 -100.3286 127° Southeast 467 537 37,000  Level Fort Worth Center
04:29PM 34.2647 -100.2231 131° Southeast 467 537 37,000  Level Fort Worth Center
04:30PM 34.1819 -100.0972 128° Southeast 467 537 37,000  Level Fort Worth Center
04:31PM 34.0989 -99.9769 130° Southeast 467 537 37,000  Level Fort Worth Center
04:32PM 34.0181 -99.8517 128° Southeast 467 537 37,000  Level Fort Worth Center
04:33PM 33.9247 -99.7189 130° Southeast 467 537 37,000  Level Fort Worth Center
04:34PM 33.8411 -99.5967 129° Southeast 467 537 37,000  Level Fort Worth Center
04:35PM 33.7597 -99.4722 128° Southeast 472 543 37,000  Level Fort Worth Center
04:36PM 33.6761 -99.3528 130° Southeast 472 543 37,000  Level Fort Worth Center
04:37PM 33.5903 -99.2289 130° Southeast 477 549 37,000  Level Fort Worth Center
04:38PM 33.5044 -99.1050 130° Southeast 477 549 37,000  Level Fort Worth Center
04:39PM 33.4206 -98.9839 130° Southeast 477 549 37,000  Level Fort Worth Center
04:40PM 33.3383 -98.8631 129° Southeast 477 549 37,000  Level Fort Worth Center
04:41PM 33.2500 -98.7400 131° Southeast 477 549 37,000  Level Fort Worth Center
04:42PM 33.1636 -98.6169 130° Southeast 482 555 37,000  Level Fort Worth Center
04:43PM 33.0917 -98.5019 127° Southeast 476 548 37,000  Level Fort Worth Center
04:44PM 32.9986 -98.3844 133° Southeast 468 539 37,000  Level Fort Worth Center
04:45PM 32.9119 -98.2622 130° Southeast 468 539 37,000  Level Fort Worth Center
04:46PM 32.8269 -98.1428 130° Southeast 473 544 37,000  Level Fort Worth Center
04:47PM 32.7400 -98.0236 131° Southeast 473 544 37,000  Level Fort Worth Center
04:48PM 32.6528 -97.9094 132° Southeast 467 537 37,000  Level Fort Worth Center
04:49PM 32.5633 -97.7956 133° Southeast 467 537 37,000  Level Fort Worth Center
04:50PM 32.4739 -97.6867 134° Southeast 467 537 37,000  Level Fort Worth Center
04:51PM 32.3864 -97.5806 134° Southeast 460 529 37,000  Level Fort Worth Center
04:52PM 32.2989 -97.4675 132° Southeast 460 529 37,000  Level Fort Worth Center
04:53PM 32.2069 -97.3569 134° Southeast 460 529 37,000  Level Fort Worth Center
04:54PM 32.1297 -97.2589 133° Southeast 460 529 37,000  Level Fort Worth Center
04:55PM 32.0419 -97.1511 134° Southeast 460 529 37,000  Level Fort Worth Center
04:56PM 31.9539 -97.0461 135° Southeast 454 522 37,000 -120 Level Fort Worth Center
04:57PM 31.8639 -96.9314 133° Southeast 460 529 36,800 -1,200 Descending Fort Worth Center
04:58PM 31.7756 -96.8244 134° Southeast 465 535 34,600 -2,400 Descending Fort Worth Center
05:00PM 31.6142 -96.6264 134° Southeast 450 518 30,100 -1,980 Descending Houston Center
05:01PM 31.5208 -96.5208 136° Southeast 458 527 29,000 -720 Descending Houston Center
05:02PM 31.4044 -96.4675 159° South 444 511 28,700 -780 Descending Houston Center
05:03PM 31.2889 -96.3947 152° Southeast 462 532 27,500 -1,560 Descending Houston Center
05:04PM 31.1753 -96.3203 151° Southeast 463 533 25,500 -1,680 Descending Houston Center
05:05PM 31.0678 -96.2528 152° Southeast 439 505 24,100 -1,440 Descending Houston Center
05:06PM 30.9461 -96.1744 151° Southeast 424 488 22,600 -2,220 Descending Houston Center
05:07PM 30.8433 -96.1094 151° Southeast 417 480 19,600 -2,880 Descending Houston Center
05:08PM 30.7467 -96.0489 152° Southeast 405 466 16,700 -3,120 Descending Houston Center
05:08PM 30.7042 -96.0231 152° Southeast 393 452 15,300 -3,120 Descending Houston Center
05:09PM 30.6453 -95.9828 150° Southeast 391 450 13,500 -2,760 Descending Houston Center
05:10PM 30.5975 -95.9553 154° Southeast 381 438 12,200 -2,460 Descending Houston Center
05:10PM 30.5536 -95.9253 150° Southeast 377 434 11,000 -1,920 Descending Houston Center
05:11PM 30.5153 -95.9019 152° Southeast 355 409 10,300 -1,020 Descending Houston Center
05:11PM 30.4722 -95.8739 151° Southeast 340 391 10,000 -300 Descending Houston Center
05:12PM 30.4333 -95.8508 153° Southeast 289 333 10,000  Level Houston Center
05:12PM 30.4003 -95.8328 155° Southeast 294 338 10,000 -540 Level Houston Center
05:13PM 30.3592 -95.8206 166° South 279 321 9,500 -900 Descending Houston Center
05:13PM 30.3256 -95.8083 163° South 281 323 9,100 -900 Descending Houston Center
05:14PM 30.2836 -95.7956 165° South 279 321 8,600 -1,260 Descending Houston Center
05:14PM 30.2372 -95.7733 158° South 281 323 7,800 -1,380 Descending Houston Center
05:15PM 30.2094 -95.7631 162° South 278 320 7,200 -1,860 Descending Houston Center
05:16PM 30.1356 -95.7356 162° South 266 306 5,200 -1,800 Descending Houston Center
05:16PM 30.0981 -95.7194 160° South 261 300 4,200 -1,740 Descending Houston Center
05:17PM 30.0658 -95.7075 162° South 237 273 3,300 -1,200 Descending Houston Center
05:17PM 30.0358 -95.6969 163° South 240 276 3,000 -240 Descending Houston Center
05:18PM 30.0147 -95.6750 138° Southeast 251 289 3,100  Climbing Houston Center
05:18PM 30.0064 -95.6325 103° East 245 282 3,000 -120 Descending Houston Center
05:19PM 30.0053 -95.5939 92° East 251 289 3,000  Level Houston Center